sensor_id;sensor_type;location;lat;lon;timestamp;P1;durP1;ratioP1;P2;durP2;ratioP2
73515;SDS011;61763;51.416;5.442;2022-08-21T00:00:22;9.15;;;6.25;;
73515;SDS011;61763;51.416;5.442;2022-08-21T00:02:52;8.90;;;5.07;;
73515;SDS011;61763;51.416;5.442;2022-08-21T00:05:22;11.52;;;6.75;;
73515;SDS011;61763;51.416;5.442;2022-08-21T00:07:49;11.18;;;5.57;;
73515;SDS011;61763;51.416;5.442;2022-08-21T00:10:16;12.30;;;6.25;;
73515;SDS011;61763;51.416;5.442;2022-08-21T00:12:42;9.55;;;6.25;;
73515;SDS011;61763;51.416;5.442;2022-08-21T00:15:09;8.95;;;6.40;;
73515;SDS011;61763;51.416;5.442;2022-08-21T00:20:03;9.48;;;7.07;;
73515;SDS011;61763;51.416;5.442;2022-08-21T00:22:29;11.50;;;6.47;;
73515;SDS011;61763;51.416;5.442;2022-08-21T00:24:55;8.10;;;5.45;;
73515;SDS011;61763;51.416;5.442;2022-08-21T00:27:20;10.18;;;5.43;;
73515;SDS011;61763;51.416;5.442;2022-08-21T00:29:45;11.57;;;7.20;;
73515;SDS011;61763;51.416;5.442;2022-08-21T00:32:11;14.95;;;8.90;;
73515;SDS011;61763;51.416;5.442;2022-08-21T00:34:36;11.15;;;6.22;;
73515;SDS011;61763;51.416;5.442;2022-08-21T00:37:01;11.90;;;7.82;;
73515;SDS011;61763;51.416;5.442;2022-08-21T00:39:27;10.80;;;7.38;;
73515;SDS011;61763;51.416;5.442;2022-08-21T00:41:52;13.65;;;6.32;;
73515;SDS011;61763;51.416;5.442;2022-08-21T00:44:17;16.77;;;10.40;;
73515;SDS011;61763;51.416;5.442;2022-08-21T00:46:43;11.70;;;7.03;;
73515;SDS011;61763;51.416;5.442;2022-08-21T00:49:09;13.10;;;7.68;;
73515;SDS011;61763;51.416;5.442;2022-08-21T00:51:42;13.55;;;8.30;;
73515;SDS011;61763;51.416;5.442;2022-08-21T00:54:12;10.20;;;6.18;;
73515;SDS011;61763;51.416;5.442;2022-08-21T00:56:39;10.20;;;6.30;;
73515;SDS011;61763;51.416;5.442;2022-08-21T00:59:05;10.50;;;6.43;;
73515;SDS011;61763;51.416;5.442;2022-08-21T01:01:31;10.75;;;6.45;;
73515;SDS011;61763;51.416;5.442;2022-08-21T01:03:57;11.35;;;6.63;;
73515;SDS011;61763;51.416;5.442;2022-08-21T01:06:22;10.75;;;6.35;;
73515;SDS011;61763;51.416;5.442;2022-08-21T01:08:47;13.60;;;6.57;;
73515;SDS011;61763;51.416;5.442;2022-08-21T01:11:14;11.68;;;7.72;;
73515;SDS011;61763;51.416;5.442;2022-08-21T01:13:40;10.27;;;6.65;;
73515;SDS011;61763;51.416;5.442;2022-08-21T01:16:10;9.68;;;6.30;;
73515;SDS011;61763;51.416;5.442;2022-08-21T01:18:37;15.57;;;9.45;;
73515;SDS011;61763;51.416;5.442;2022-08-21T01:21:35;14.73;;;8.45;;
73515;SDS011;61763;51.416;5.442;2022-08-21T01:23:55;14.77;;;9.15;;
73515;SDS011;61763;51.416;5.442;2022-08-21T01:26:24;15.23;;;9.32;;
73515;SDS011;61763;51.416;5.442;2022-08-21T01:28:57;16.33;;;8.98;;
73515;SDS011;61763;51.416;5.442;2022-08-21T01:31:28;14.50;;;8.70;;
73515;SDS011;61763;51.416;5.442;2022-08-21T01:33:54;17.42;;;10.90;;
73515;SDS011;61763;51.416;5.442;2022-08-21T01:36:21;16.50;;;11.38;;
73515;SDS011;61763;51.416;5.442;2022-08-21T01:38:47;17.55;;;11.30;;
73515;SDS011;61763;51.416;5.442;2022-08-21T01:41:14;18.58;;;10.73;;
73515;SDS011;61763;51.416;5.442;2022-08-21T01:43:40;16.25;;;10.27;;
73515;SDS011;61763;51.416;5.442;2022-08-21T01:46:08;16.73;;;9.48;;
73515;SDS011;61763;51.416;5.442;2022-08-21T01:48:34;15.93;;;10.25;;
73515;SDS011;61763;51.416;5.442;2022-08-21T01:51:00;13.20;;;8.70;;
73515;SDS011;61763;51.416;5.442;2022-08-21T01:53:26;16.48;;;9.32;;
73515;SDS011;61763;51.416;5.442;2022-08-21T01:55:51;14.93;;;9.50;;
73515;SDS011;61763;51.416;5.442;2022-08-21T01:58:17;15.23;;;9.95;;
73515;SDS011;61763;51.416;5.442;2022-08-21T02:00:42;15.67;;;9.73;;
73515;SDS011;61763;51.416;5.442;2022-08-21T02:03:08;13.35;;;9.80;;
73515;SDS011;61763;51.416;5.442;2022-08-21T02:05:33;13.68;;;9.57;;
73515;SDS011;61763;51.416;5.442;2022-08-21T02:07:59;17.98;;;9.57;;
73515;SDS011;61763;51.416;5.442;2022-08-21T02:10:28;13.77;;;9.23;;
73515;SDS011;61763;51.416;5.442;2022-08-21T02:12:55;17.42;;;9.93;;
73515;SDS011;61763;51.416;5.442;2022-08-21T02:15:22;15.15;;;10.02;;
73515;SDS011;61763;51.416;5.442;2022-08-21T02:17:52;13.77;;;8.10;;
73515;SDS011;61763;51.416;5.442;2022-08-21T02:20:27;17.52;;;9.15;;
73515;SDS011;61763;51.416;5.442;2022-08-21T02:22:57;18.45;;;9.68;;
73515;SDS011;61763;51.416;5.442;2022-08-21T02:25:23;17.33;;;11.50;;
73515;SDS011;61763;51.416;5.442;2022-08-21T02:27:50;16.48;;;9.77;;
73515;SDS011;61763;51.416;5.442;2022-08-21T02:30:21;20.90;;;13.10;;
73515;SDS011;61763;51.416;5.442;2022-08-21T02:32:53;24.02;;;13.18;;
73515;SDS011;61763;51.416;5.442;2022-08-21T02:35:19;22.67;;;13.00;;
73515;SDS011;61763;51.416;5.442;2022-08-21T02:37:49;21.65;;;13.73;;
73515;SDS011;61763;51.416;5.442;2022-08-21T02:40:17;21.35;;;12.88;;
73515;SDS011;61763;51.416;5.442;2022-08-21T02:42:44;18.42;;;12.43;;
73515;SDS011;61763;51.416;5.442;2022-08-21T02:45:11;19.45;;;12.60;;
73515;SDS011;61763;51.416;5.442;2022-08-21T02:47:38;19.73;;;10.32;;
73515;SDS011;61763;51.416;5.442;2022-08-21T02:50:05;15.93;;;10.75;;
73515;SDS011;61763;51.416;5.442;2022-08-21T02:52:31;18.23;;;9.90;;
73515;SDS011;61763;51.416;5.442;2022-08-21T02:54:58;20.17;;;12.27;;
73515;SDS011;61763;51.416;5.442;2022-08-21T02:57:23;15.82;;;11.10;;
73515;SDS011;61763;51.416;5.442;2022-08-21T02:59:49;16.55;;;11.25;;
73515;SDS011;61763;51.416;5.442;2022-08-21T03:02:14;17.98;;;11.88;;
73515;SDS011;61763;51.416;5.442;2022-08-21T03:04:39;18.70;;;11.85;;
73515;SDS011;61763;51.416;5.442;2022-08-21T03:07:05;20.40;;;10.88;;
73515;SDS011;61763;51.416;5.442;2022-08-21T03:09:30;18.95;;;10.57;;
73515;SDS011;61763;51.416;5.442;2022-08-21T03:11:55;18.20;;;9.73;;
73515;SDS011;61763;51.416;5.442;2022-08-21T03:14:21;17.70;;;10.50;;
73515;SDS011;61763;51.416;5.442;2022-08-21T03:16:46;15.32;;;10.77;;
73515;SDS011;61763;51.416;5.442;2022-08-21T03:19:12;15.05;;;9.70;;
73515;SDS011;61763;51.416;5.442;2022-08-21T03:21:38;17.02;;;10.60;;
73515;SDS011;61763;51.416;5.442;2022-08-21T03:24:03;15.75;;;11.27;;
73515;SDS011;61763;51.416;5.442;2022-08-21T03:26:29;19.17;;;9.75;;
73515;SDS011;61763;51.416;5.442;2022-08-21T03:28:55;18.60;;;10.93;;
73515;SDS011;61763;51.416;5.442;2022-08-21T03:31:22;18.83;;;11.95;;
73515;SDS011;61763;51.416;5.442;2022-08-21T03:33:48;17.88;;;9.55;;
73515;SDS011;61763;51.416;5.442;2022-08-21T03:36:13;16.15;;;9.52;;
73515;SDS011;61763;51.416;5.442;2022-08-21T03:38:40;15.77;;;9.27;;
73515;SDS011;61763;51.416;5.442;2022-08-21T03:41:06;15.98;;;9.35;;
73515;SDS011;61763;51.416;5.442;2022-08-21T03:43:33;20.15;;;11.48;;
73515;SDS011;61763;51.416;5.442;2022-08-21T03:46:00;16.13;;;10.88;;
73515;SDS011;61763;51.416;5.442;2022-08-21T03:48:26;14.75;;;9.00;;
73515;SDS011;61763;51.416;5.442;2022-08-21T03:50:52;15.50;;;8.85;;
73515;SDS011;61763;51.416;5.442;2022-08-21T03:53:18;19.92;;;11.65;;
73515;SDS011;61763;51.416;5.442;2022-08-21T03:55:44;21.60;;;11.75;;
73515;SDS011;61763;51.416;5.442;2022-08-21T03:58:12;22.80;;;11.82;;
73515;SDS011;61763;51.416;5.442;2022-08-21T04:00:39;21.83;;;10.35;;
73515;SDS011;61763;51.416;5.442;2022-08-21T04:03:04;23.63;;;9.70;;
73515;SDS011;61763;51.416;5.442;2022-08-21T04:05:31;21.98;;;11.70;;
73515;SDS011;61763;51.416;5.442;2022-08-21T04:07:58;21.73;;;12.70;;
73515;SDS011;61763;51.416;5.442;2022-08-21T04:10:26;18.88;;;9.55;;
73515;SDS011;61763;51.416;5.442;2022-08-21T04:12:53;18.00;;;10.27;;
73515;SDS011;61763;51.416;5.442;2022-08-21T04:15:19;19.75;;;12.02;;
73515;SDS011;61763;51.416;5.442;2022-08-21T04:17:45;23.42;;;11.43;;
73515;SDS011;61763;51.416;5.442;2022-08-21T04:20:11;18.50;;;10.30;;
73515;SDS011;61763;51.416;5.442;2022-08-21T04:22:37;18.70;;;9.00;;
73515;SDS011;61763;51.416;5.442;2022-08-21T04:25:02;20.83;;;12.07;;
73515;SDS011;61763;51.416;5.442;2022-08-21T04:27:28;25.35;;;11.43;;
73515;SDS011;61763;51.416;5.442;2022-08-21T04:29:53;19.08;;;9.93;;
73515;SDS011;61763;51.416;5.442;2022-08-21T04:32:25;17.75;;;10.07;;
73515;SDS011;61763;51.416;5.442;2022-08-21T04:34:50;20.65;;;10.27;;
73515;SDS011;61763;51.416;5.442;2022-08-21T04:37:22;19.48;;;10.50;;
73515;SDS011;61763;51.416;5.442;2022-08-21T04:39:47;16.60;;;9.98;;
73515;SDS011;61763;51.416;5.442;2022-08-21T04:42:12;17.15;;;10.13;;
73515;SDS011;61763;51.416;5.442;2022-08-21T04:44:39;17.48;;;8.57;;
73515;SDS011;61763;51.416;5.442;2022-08-21T04:47:04;17.02;;;8.25;;
73515;SDS011;61763;51.416;5.442;2022-08-21T04:49:30;18.08;;;9.35;;
73515;SDS011;61763;51.416;5.442;2022-08-21T04:51:56;18.92;;;9.45;;
73515;SDS011;61763;51.416;5.442;2022-08-21T04:54:21;15.95;;;8.50;;
73515;SDS011;61763;51.416;5.442;2022-08-21T04:56:49;19.15;;;8.52;;
73515;SDS011;61763;51.416;5.442;2022-08-21T04:59:21;18.23;;;9.80;;
73515;SDS011;61763;51.416;5.442;2022-08-21T05:04:22;15.52;;;8.32;;
73515;SDS011;61763;51.416;5.442;2022-08-21T05:06:51;14.88;;;9.15;;
73515;SDS011;61763;51.416;5.442;2022-08-21T05:09:22;19.77;;;8.77;;
73515;SDS011;61763;51.416;5.442;2022-08-21T05:11:49;19.20;;;9.20;;
73515;SDS011;61763;51.416;5.442;2022-08-21T05:14:16;18.45;;;9.95;;
73515;SDS011;61763;51.416;5.442;2022-08-21T05:16:42;14.30;;;8.63;;
73515;SDS011;61763;51.416;5.442;2022-08-21T05:19:09;22.42;;;9.90;;
73515;SDS011;61763;51.416;5.442;2022-08-21T05:21:35;17.88;;;9.15;;
73515;SDS011;61763;51.416;5.442;2022-08-21T05:24:02;22.70;;;10.05;;
73515;SDS011;61763;51.416;5.442;2022-08-21T05:26:28;21.05;;;11.27;;
73515;SDS011;61763;51.416;5.442;2022-08-21T05:28:53;19.03;;;9.33;;
73515;SDS011;61763;51.416;5.442;2022-08-21T05:31:18;16.83;;;8.85;;
73515;SDS011;61763;51.416;5.442;2022-08-21T05:33:44;15.10;;;7.55;;
73515;SDS011;61763;51.416;5.442;2022-08-21T05:36:09;17.80;;;7.25;;
73515;SDS011;61763;51.416;5.442;2022-08-21T05:38:34;14.55;;;7.43;;
73515;SDS011;61763;51.416;5.442;2022-08-21T05:41:00;18.02;;;7.07;;
73515;SDS011;61763;51.416;5.442;2022-08-21T05:43:25;16.13;;;7.20;;
73515;SDS011;61763;51.416;5.442;2022-08-21T05:45:53;10.00;;;6.93;;
73515;SDS011;61763;51.416;5.442;2022-08-21T05:48:20;16.48;;;8.82;;
73515;SDS011;61763;51.416;5.442;2022-08-21T05:50:48;14.70;;;6.60;;
73515;SDS011;61763;51.416;5.442;2022-08-21T05:55:41;14.05;;;5.75;;
73515;SDS011;61763;51.416;5.442;2022-08-21T05:58:07;13.57;;;6.30;;
73515;SDS011;61763;51.416;5.442;2022-08-21T06:00:32;11.85;;;5.28;;
73515;SDS011;61763;51.416;5.442;2022-08-21T06:02:58;11.13;;;6.75;;
73515;SDS011;61763;51.416;5.442;2022-08-21T06:05:23;16.33;;;7.37;;
73515;SDS011;61763;51.416;5.442;2022-08-21T06:07:49;13.80;;;7.00;;
73515;SDS011;61763;51.416;5.442;2022-08-21T06:10:14;9.45;;;5.00;;
73515;SDS011;61763;51.416;5.442;2022-08-21T06:12:40;11.48;;;4.97;;
73515;SDS011;61763;51.416;5.442;2022-08-21T06:15:05;12.85;;;5.07;;
73515;SDS011;61763;51.416;5.442;2022-08-21T06:17:31;9.98;;;5.68;;
73515;SDS011;61763;51.416;5.442;2022-08-21T06:19:56;12.93;;;5.32;;
73515;SDS011;61763;51.416;5.442;2022-08-21T06:22:22;10.45;;;4.38;;
73515;SDS011;61763;51.416;5.442;2022-08-21T06:24:47;10.90;;;4.50;;
73515;SDS011;61763;51.416;5.442;2022-08-21T06:27:13;11.38;;;5.47;;
73515;SDS011;61763;51.416;5.442;2022-08-21T06:29:40;10.55;;;4.55;;
73515;SDS011;61763;51.416;5.442;2022-08-21T06:32:05;12.93;;;3.80;;
73515;SDS011;61763;51.416;5.442;2022-08-21T06:34:37;11.45;;;3.50;;
73515;SDS011;61763;51.416;5.442;2022-08-21T06:37:04;9.50;;;3.45;;
73515;SDS011;61763;51.416;5.442;2022-08-21T06:39:30;10.10;;;3.53;;
73515;SDS011;61763;51.416;5.442;2022-08-21T06:41:56;10.25;;;3.90;;
73515;SDS011;61763;51.416;5.442;2022-08-21T06:44:21;8.05;;;3.63;;
73515;SDS011;61763;51.416;5.442;2022-08-21T06:46:47;8.43;;;3.85;;
73515;SDS011;61763;51.416;5.442;2022-08-21T06:49:13;8.07;;;2.55;;
73515;SDS011;61763;51.416;5.442;2022-08-21T06:51:38;8.27;;;2.78;;
73515;SDS011;61763;51.416;5.442;2022-08-21T06:54:05;7.30;;;2.10;;
73515;SDS011;61763;51.416;5.442;2022-08-21T06:56:31;6.30;;;2.13;;
73515;SDS011;61763;51.416;5.442;2022-08-21T06:58:58;7.35;;;2.40;;
73515;SDS011;61763;51.416;5.442;2022-08-21T07:01:24;8.05;;;3.10;;
73515;SDS011;61763;51.416;5.442;2022-08-21T07:03:51;8.63;;;2.13;;
73515;SDS011;61763;51.416;5.442;2022-08-21T07:06:17;7.93;;;3.00;;
73515;SDS011;61763;51.416;5.442;2022-08-21T07:08:42;6.28;;;2.95;;
73515;SDS011;61763;51.416;5.442;2022-08-21T07:11:18;9.68;;;2.03;;
73515;SDS011;61763;51.416;5.442;2022-08-21T07:13:46;8.90;;;2.75;;
73515;SDS011;61763;51.416;5.442;2022-08-21T07:16:13;8.63;;;1.80;;
73515;SDS011;61763;51.416;5.442;2022-08-21T07:18:39;6.47;;;1.90;;
73515;SDS011;61763;51.416;5.442;2022-08-21T07:21:05;8.00;;;2.72;;
73515;SDS011;61763;51.416;5.442;2022-08-21T07:23:32;7.57;;;1.98;;
73515;SDS011;61763;51.416;5.442;2022-08-21T07:26:00;8.82;;;3.03;;
73515;SDS011;61763;51.416;5.442;2022-08-21T07:28:26;10.30;;;2.90;;
73515;SDS011;61763;51.416;5.442;2022-08-21T07:30:53;6.82;;;3.05;;
73515;SDS011;61763;51.416;5.442;2022-08-21T07:33:22;12.52;;;3.17;;
73515;SDS011;61763;51.416;5.442;2022-08-21T07:35:49;5.25;;;1.45;;
73515;SDS011;61763;51.416;5.442;2022-08-21T07:38:14;9.70;;;1.58;;
73515;SDS011;61763;51.416;5.442;2022-08-21T07:40:40;11.75;;;2.05;;
73515;SDS011;61763;51.416;5.442;2022-08-21T07:43:05;6.70;;;1.92;;
73515;SDS011;61763;51.416;5.442;2022-08-21T07:45:31;10.57;;;2.10;;
73515;SDS011;61763;51.416;5.442;2022-08-21T07:47:57;8.52;;;1.77;;
73515;SDS011;61763;51.416;5.442;2022-08-21T07:50:22;9.73;;;2.20;;
73515;SDS011;61763;51.416;5.442;2022-08-21T07:52:48;9.15;;;1.70;;
73515;SDS011;61763;51.416;5.442;2022-08-21T07:55:15;11.15;;;2.65;;
73515;SDS011;61763;51.416;5.442;2022-08-21T07:57:42;11.25;;;1.63;;
73515;SDS011;61763;51.416;5.442;2022-08-21T08:00:09;11.32;;;2.30;;
73515;SDS011;61763;51.416;5.442;2022-08-21T08:02:37;8.68;;;2.40;;
73515;SDS011;61763;51.416;5.442;2022-08-21T08:05:03;6.57;;;2.17;;
73515;SDS011;61763;51.416;5.442;2022-08-21T08:07:30;8.18;;;2.30;;
73515;SDS011;61763;51.416;5.442;2022-08-21T08:09:56;6.65;;;2.67;;
73515;SDS011;61763;51.416;5.442;2022-08-21T08:12:23;5.20;;;1.35;;
73515;SDS011;61763;51.416;5.442;2022-08-21T08:14:53;8.73;;;1.52;;
73515;SDS011;61763;51.416;5.442;2022-08-21T08:17:19;9.10;;;1.70;;
73515;SDS011;61763;51.416;5.442;2022-08-21T08:19:48;11.68;;;1.83;;
73515;SDS011;61763;51.416;5.442;2022-08-21T08:22:14;9.07;;;2.55;;
73515;SDS011;61763;51.416;5.442;2022-08-21T08:24:44;9.68;;;1.42;;
73515;SDS011;61763;51.416;5.442;2022-08-21T08:27:10;6.07;;;1.27;;
73515;SDS011;61763;51.416;5.442;2022-08-21T08:29:36;5.57;;;2.25;;
73515;SDS011;61763;51.416;5.442;2022-08-21T08:32:03;9.73;;;1.52;;
73515;SDS011;61763;51.416;5.442;2022-08-21T08:36:55;8.20;;;1.70;;
73515;SDS011;61763;51.416;5.442;2022-08-21T08:39:22;9.10;;;3.17;;
73515;SDS011;61763;51.416;5.442;2022-08-21T08:41:48;7.75;;;1.63;;
73515;SDS011;61763;51.416;5.442;2022-08-21T08:44:16;6.13;;;2.00;;
73515;SDS011;61763;51.416;5.442;2022-08-21T08:46:43;7.18;;;1.23;;
73515;SDS011;61763;51.416;5.442;2022-08-21T08:49:18;8.35;;;2.80;;
73515;SDS011;61763;51.416;5.442;2022-08-21T08:51:57;10.05;;;2.50;;
73515;SDS011;61763;51.416;5.442;2022-08-21T08:54:33;8.65;;;1.90;;
73515;SDS011;61763;51.416;5.442;2022-08-21T08:57:10;9.07;;;1.45;;
73515;SDS011;61763;51.416;5.442;2022-08-21T08:59:52;7.45;;;1.63;;
73515;SDS011;61763;51.416;5.442;2022-08-21T09:02:20;8.38;;;3.53;;
73515;SDS011;61763;51.416;5.442;2022-08-21T09:04:48;8.65;;;3.08;;
73515;SDS011;61763;51.416;5.442;2022-08-21T09:18:12;6.78;;;2.53;;
73515;SDS011;61763;51.416;5.442;2022-08-21T09:26:12;7.32;;;1.45;;
73515;SDS011;61763;51.416;5.442;2022-08-21T09:28:40;8.93;;;1.58;;
73515;SDS011;61763;51.416;5.442;2022-08-21T09:31:28;3.55;;;0.93;;
73515;SDS011;61763;51.416;5.442;2022-08-21T09:34:03;6.78;;;1.80;;
73515;SDS011;61763;51.416;5.442;2022-08-21T09:36:42;8.25;;;1.10;;
73515;SDS011;61763;51.416;5.442;2022-08-21T09:41:37;6.47;;;0.80;;
73515;SDS011;61763;51.416;5.442;2022-08-21T09:44:03;8.98;;;2.90;;
73515;SDS011;61763;51.416;5.442;2022-08-21T09:46:30;5.70;;;0.88;;
73515;SDS011;61763;51.416;5.442;2022-08-21T09:48:57;7.90;;;2.30;;
73515;SDS011;61763;51.416;5.442;2022-08-21T09:51:28;5.78;;;2.13;;
73515;SDS011;61763;51.416;5.442;2022-08-21T09:56:36;4.82;;;1.67;;
73515;SDS011;61763;51.416;5.442;2022-08-21T09:59:34;7.43;;;2.25;;
73515;SDS011;61763;51.416;5.442;2022-08-21T10:04:53;7.82;;;2.38;;
73515;SDS011;61763;51.416;5.442;2022-08-21T10:07:32;6.88;;;2.42;;
73515;SDS011;61763;51.416;5.442;2022-08-21T10:15:28;7.32;;;2.65;;
73515;SDS011;61763;51.416;5.442;2022-08-21T10:21:57;7.30;;;1.73;;
73515;SDS011;61763;51.416;5.442;2022-08-21T10:27:04;6.75;;;0.68;;
73515;SDS011;61763;51.416;5.442;2022-08-21T10:32:23;5.55;;;0.68;;
73515;SDS011;61763;51.416;5.442;2022-08-21T10:37:42;5.45;;;1.55;;
73515;SDS011;61763;51.416;5.442;2022-08-21T10:43:04;4.72;;;2.08;;
73515;SDS011;61763;51.416;5.442;2022-08-21T10:48:27;4.70;;;1.98;;
73515;SDS011;61763;51.416;5.442;2022-08-21T10:51:00;7.32;;;0.93;;
73515;SDS011;61763;51.416;5.442;2022-08-21T10:56:24;5.53;;;2.15;;
73515;SDS011;61763;51.416;5.442;2022-08-21T10:58:59;5.43;;;3.05;;
73515;SDS011;61763;51.416;5.442;2022-08-21T11:01:42;5.32;;;1.27;;
73515;SDS011;61763;51.416;5.442;2022-08-21T11:04:11;5.43;;;2.67;;
73515;SDS011;61763;51.416;5.442;2022-08-21T11:06:37;8.52;;;1.30;;
73515;SDS011;61763;51.416;5.442;2022-08-21T11:09:14;5.80;;;2.38;;
73515;SDS011;61763;51.416;5.442;2022-08-21T11:17:02;5.10;;;1.23;;
73515;SDS011;61763;51.416;5.442;2022-08-21T11:19:41;10.02;;;3.65;;
73515;SDS011;61763;51.416;5.442;2022-08-21T11:22:14;5.07;;;1.65;;
73515;SDS011;61763;51.416;5.442;2022-08-21T11:30:15;4.18;;;1.38;;
73515;SDS011;61763;51.416;5.442;2022-08-21T11:40:27;6.00;;;1.35;;
73515;SDS011;61763;51.416;5.442;2022-08-21T11:45:55;5.93;;;0.90;;
73515;SDS011;61763;51.416;5.442;2022-08-21T11:50:56;5.88;;;3.35;;
73515;SDS011;61763;51.416;5.442;2022-08-21T11:53:26;6.13;;;2.72;;
73515;SDS011;61763;51.416;5.442;2022-08-21T11:56:02;5.00;;;2.60;;
73515;SDS011;61763;51.416;5.442;2022-08-21T11:58:41;5.70;;;2.45;;
73515;SDS011;61763;51.416;5.442;2022-08-21T12:01:30;5.90;;;1.40;;
73515;SDS011;61763;51.416;5.442;2022-08-21T12:04:02;6.75;;;1.02;;
73515;SDS011;61763;51.416;5.442;2022-08-21T12:09:30;4.63;;;1.35;;
73515;SDS011;61763;51.416;5.442;2022-08-21T12:11:59;4.72;;;2.22;;
73515;SDS011;61763;51.416;5.442;2022-08-21T12:14:46;4.43;;;2.85;;
73515;SDS011;61763;51.416;5.442;2022-08-21T12:17:19;3.80;;;1.00;;
73515;SDS011;61763;51.416;5.442;2022-08-21T12:20:00;6.60;;;1.55;;
73515;SDS011;61763;51.416;5.442;2022-08-21T12:22:39;4.38;;;1.35;;
73515;SDS011;61763;51.416;5.442;2022-08-21T12:25:06;5.47;;;1.48;;
73515;SDS011;61763;51.416;5.442;2022-08-21T12:32:56;4.50;;;1.23;;
73515;SDS011;61763;51.416;5.442;2022-08-21T12:38:02;7.18;;;3.15;;
73515;SDS011;61763;51.416;5.442;2022-08-21T12:43:33;9.88;;;2.15;;
73515;SDS011;61763;51.416;5.442;2022-08-21T12:46:02;5.80;;;1.58;;
73515;SDS011;61763;51.416;5.442;2022-08-21T12:48:38;8.55;;;3.40;;
73515;SDS011;61763;51.416;5.442;2022-08-21T12:51:13;5.63;;;1.35;;
73515;SDS011;61763;51.416;5.442;2022-08-21T12:56:14;5.78;;;1.52;;
73515;SDS011;61763;51.416;5.442;2022-08-21T12:59:01;6.63;;;2.33;;
73515;SDS011;61763;51.416;5.442;2022-08-21T13:04:06;5.78;;;1.67;;
73515;SDS011;61763;51.416;5.442;2022-08-21T13:06:45;5.15;;;1.52;;
73515;SDS011;61763;51.416;5.442;2022-08-21T13:09:18;6.25;;;1.67;;
73515;SDS011;61763;51.416;5.442;2022-08-21T13:11:49;5.82;;;2.42;;
73515;SDS011;61763;51.416;5.442;2022-08-21T13:14:28;6.60;;;3.78;;
73515;SDS011;61763;51.416;5.442;2022-08-21T13:16:58;7.47;;;3.08;;
73515;SDS011;61763;51.416;5.442;2022-08-21T13:19:25;8.55;;;3.63;;
73515;SDS011;61763;51.416;5.442;2022-08-21T13:21:51;8.13;;;3.65;;
73515;SDS011;61763;51.416;5.442;2022-08-21T13:26:42;9.20;;;3.63;;
73515;SDS011;61763;51.416;5.442;2022-08-21T13:29:10;7.60;;;2.42;;
73515;SDS011;61763;51.416;5.442;2022-08-21T13:31:37;6.78;;;3.15;;
73515;SDS011;61763;51.416;5.442;2022-08-21T13:34:05;6.07;;;1.98;;
73515;SDS011;61763;51.416;5.442;2022-08-21T13:36:34;7.57;;;2.17;;
73515;SDS011;61763;51.416;5.442;2022-08-21T13:39:05;7.15;;;4.28;;
73515;SDS011;61763;51.416;5.442;2022-08-21T13:41:34;8.00;;;3.97;;
73515;SDS011;61763;51.416;5.442;2022-08-21T13:44:13;7.60;;;3.45;;
73515;SDS011;61763;51.416;5.442;2022-08-21T13:46:47;5.90;;;4.88;;
73515;SDS011;61763;51.416;5.442;2022-08-21T13:49:15;8.98;;;3.45;;
73515;SDS011;61763;51.416;5.442;2022-08-21T13:51:43;7.25;;;3.65;;
73515;SDS011;61763;51.416;5.442;2022-08-21T13:54:14;7.40;;;3.17;;
73515;SDS011;61763;51.416;5.442;2022-08-21T13:57:00;6.45;;;5.82;;
73515;SDS011;61763;51.416;5.442;2022-08-21T13:59:26;7.78;;;4.90;;
73515;SDS011;61763;51.416;5.442;2022-08-21T14:02:00;7.93;;;5.43;;
73515;SDS011;61763;51.416;5.442;2022-08-21T14:04:35;8.70;;;5.68;;
73515;SDS011;61763;51.416;5.442;2022-08-21T14:07:13;7.28;;;4.95;;
73515;SDS011;61763;51.416;5.442;2022-08-21T14:09:45;7.07;;;5.28;;
73515;SDS011;61763;51.416;5.442;2022-08-21T14:14:49;6.32;;;2.65;;
73515;SDS011;61763;51.416;5.442;2022-08-21T14:17:25;10.73;;;3.58;;
73515;SDS011;61763;51.416;5.442;2022-08-21T14:19:53;6.80;;;5.00;;
73515;SDS011;61763;51.416;5.442;2022-08-21T14:22:38;7.70;;;5.97;;
73515;SDS011;61763;51.416;5.442;2022-08-21T14:25:07;7.55;;;5.72;;
73515;SDS011;61763;51.416;5.442;2022-08-21T14:27:38;7.15;;;3.67;;
73515;SDS011;61763;51.416;5.442;2022-08-21T14:30:12;9.38;;;3.38;;
73515;SDS011;61763;51.416;5.442;2022-08-21T14:35:08;6.22;;;2.92;;
73515;SDS011;61763;51.416;5.442;2022-08-21T14:37:34;7.47;;;5.55;;
73515;SDS011;61763;51.416;5.442;2022-08-21T14:39:59;7.57;;;5.32;;
73515;SDS011;61763;51.416;5.442;2022-08-21T14:42:25;9.13;;;2.88;;
73515;SDS011;61763;51.416;5.442;2022-08-21T14:44:50;9.57;;;5.05;;
73515;SDS011;61763;51.416;5.442;2022-08-21T14:47:17;6.20;;;2.92;;
73515;SDS011;61763;51.416;5.442;2022-08-21T14:49:43;7.63;;;2.67;;
73515;SDS011;61763;51.416;5.442;2022-08-21T14:52:08;11.20;;;4.75;;
73515;SDS011;61763;51.416;5.442;2022-08-21T14:54:34;5.80;;;4.20;;
73515;SDS011;61763;51.416;5.442;2022-08-21T14:57:01;8.50;;;4.68;;
73515;SDS011;61763;51.416;5.442;2022-08-21T14:59:34;7.50;;;4.30;;
73515;SDS011;61763;51.416;5.442;2022-08-21T15:04:25;7.15;;;4.15;;
73515;SDS011;61763;51.416;5.442;2022-08-21T15:06:51;7.28;;;2.67;;
73515;SDS011;61763;51.416;5.442;2022-08-21T15:09:16;5.55;;;4.30;;
73515;SDS011;61763;51.416;5.442;2022-08-21T15:11:42;4.85;;;2.30;;
73515;SDS011;61763;51.416;5.442;2022-08-21T15:14:08;8.27;;;3.70;;
73515;SDS011;61763;51.416;5.442;2022-08-21T15:16:37;9.52;;;4.43;;
73515;SDS011;61763;51.416;5.442;2022-08-21T15:19:03;8.85;;;2.95;;
73515;SDS011;61763;51.416;5.442;2022-08-21T15:21:28;8.57;;;5.32;;
73515;SDS011;61763;51.416;5.442;2022-08-21T15:23:54;9.02;;;4.95;;
73515;SDS011;61763;51.416;5.442;2022-08-21T15:26:20;8.63;;;3.22;;
73515;SDS011;61763;51.416;5.442;2022-08-21T15:28:47;8.20;;;5.47;;
73515;SDS011;61763;51.416;5.442;2022-08-21T15:31:12;8.48;;;5.10;;
73515;SDS011;61763;51.416;5.442;2022-08-21T15:33:38;8.15;;;3.10;;
73515;SDS011;61763;51.416;5.442;2022-08-21T15:36:03;8.27;;;3.35;;
73515;SDS011;61763;51.416;5.442;2022-08-21T15:38:29;7.85;;;3.17;;
73515;SDS011;61763;51.416;5.442;2022-08-21T15:40:54;9.38;;;4.13;;
73515;SDS011;61763;51.416;5.442;2022-08-21T15:43:27;6.93;;;3.17;;
73515;SDS011;61763;51.416;5.442;2022-08-21T15:45:54;8.50;;;3.55;;
73515;SDS011;61763;51.416;5.442;2022-08-21T15:48:20;9.43;;;3.42;;
73515;SDS011;61763;51.416;5.442;2022-08-21T15:50:45;10.23;;;2.72;;
73515;SDS011;61763;51.416;5.442;2022-08-21T15:53:11;5.50;;;1.98;;
73515;SDS011;61763;51.416;5.442;2022-08-21T15:55:36;8.65;;;4.72;;
73515;SDS011;61763;51.416;5.442;2022-08-21T15:58:02;8.95;;;3.78;;
73515;SDS011;61763;51.416;5.442;2022-08-21T16:00:29;8.45;;;3.47;;
73515;SDS011;61763;51.416;5.442;2022-08-21T16:02:57;10.93;;;2.22;;
73515;SDS011;61763;51.416;5.442;2022-08-21T16:05:25;7.97;;;3.80;;
73515;SDS011;61763;51.416;5.442;2022-08-21T16:07:51;5.90;;;1.70;;
73515;SDS011;61763;51.416;5.442;2022-08-21T16:10:18;8.38;;;3.47;;
73515;SDS011;61763;51.416;5.442;2022-08-21T16:12:47;8.93;;;1.67;;
73515;SDS011;61763;51.416;5.442;2022-08-21T16:15:16;10.02;;;3.20;;
73515;SDS011;61763;51.416;5.442;2022-08-21T16:17:43;8.82;;;4.07;;
73515;SDS011;61763;51.416;5.442;2022-08-21T16:20:13;8.55;;;3.67;;
73515;SDS011;61763;51.416;5.442;2022-08-21T16:22:41;9.07;;;3.30;;
73515;SDS011;61763;51.416;5.442;2022-08-21T16:25:06;10.55;;;3.10;;
73515;SDS011;61763;51.416;5.442;2022-08-21T16:27:33;4.95;;;1.33;;
73515;SDS011;61763;51.416;5.442;2022-08-21T16:29:59;6.97;;;2.05;;
73515;SDS011;61763;51.416;5.442;2022-08-21T16:32:25;9.23;;;3.33;;
73515;SDS011;61763;51.416;5.442;2022-08-21T16:34:51;8.90;;;2.72;;
73515;SDS011;61763;51.416;5.442;2022-08-21T16:37:17;7.25;;;2.58;;
73515;SDS011;61763;51.416;5.442;2022-08-21T16:39:43;4.88;;;1.20;;